Time;durP1;ratioP1;P1;durP2;ratioP2;P2;SDS_P1;SDS_P2;PMS_P1;PMS_P2;Temp;Humidity;BMP_temperature;BMP_pressure;BME280_temperature;BME280_humidity;BME280_pressure;Samples;Min_cycle;Max_cycle;Signal;HPM_P1;HPM_P2
2021/05/19 00:00:00;;;;;;;23.70;19.17;;;9.90;99.90;;;;;;4917300;29;20415;-70
2021/05/19 00:02:25;;;;;;;22.87;20.30;;;9.80;99.90;;;;;;4916937;29;20178;-70
2021/05/19 00:04:51;;;;;;;21.20;18.90;;;9.80;99.90;;;;;;4921045;29;20502;-68
2021/05/19 00:07:16;;;;;;;20.53;18.33;;;9.80;99.90;;;;;;4924287;29;20182;-69
2021/05/19 00:09:42;;;;;;;22.00;19.07;;;9.90;99.90;;;;;;4921401;29;20185;-70
2021/05/19 00:12:08;;;;;;;21.80;19.10;;;9.90;99.90;;;;;;4920729;29;20186;-70
2021/05/19 00:14:33;;;;;;;28.07;20.83;;;9.90;99.90;;;;;;4919995;29;20206;-71
2021/05/19 00:16:59;;;;;;;24.27;19.63;;;9.90;99.90;;;;;;4921687;29;20210;-71
2021/05/19 00:19:25;;;;;;;22.40;18.90;;;9.80;99.90;;;;;;4920788;29;20870;-71
2021/05/19 00:21:51;;;;;;;23.63;20.50;;;9.80;99.90;;;;;;4920274;29;20260;-70
2021/05/19 00:24:17;;;;;;;24.43;20.40;;;9.80;99.90;;;;;;4919806;29;20232;-71
2021/05/19 00:26:42;;;;;;;23.60;19.37;;;9.80;99.90;;;;;;4921542;29;20505;-70
2021/05/19 00:29:12;;;;;;;25.10;19.47;;;9.70;99.90;;;;;;4920422;29;20193;-71
2021/05/19 00:31:40;;;;;;;23.30;20.03;;;9.60;99.90;;;;;;4920323;29;20179;-70
2021/05/19 00:34:06;;;;;;;25.10;19.70;;;9.60;99.90;;;;;;4919823;29;20423;-71
2021/05/19 00:36:32;;;;;;;25.20;20.60;;;9.50;99.90;;;;;;4920332;29;20407;-71
2021/05/19 00:38:57;;;;;;;23.73;19.00;;;9.50;99.90;;;;;;4933149;29;20963;-71
2021/05/19 00:41:23;;;;;;;25.53;20.40;;;9.50;99.90;;;;;;4939306;29;20639;-70
2021/05/19 00:43:49;;;;;;;26.00;20.90;;;9.60;99.90;;;;;;4939035;29;20206;-71
2021/05/19 00:46:14;;;;;;;24.27;20.10;;;9.60;99.90;;;;;;4939034;29;20444;-70
2021/05/19 00:48:40;;;;;;;23.80;19.80;;;9.70;99.90;;;;;;4937924;29;20213;-70
2021/05/19 00:51:06;;;;;;;25.37;20.80;;;9.70;99.90;;;;;;4954380;29;20190;-71
2021/05/19 00:53:33;;;;;;;22.43;19.17;;;9.70;99.90;;;;;;4938454;28;20297;-71
2021/05/19 00:55:59;;;;;;;21.43;18.67;;;9.60;99.90;;;;;;4938946;29;20476;-70
2021/05/19 00:58:24;;;;;;;23.83;19.97;;;9.60;99.90;;;;;;4938844;29;20428;-71
2021/05/19 01:00:50;;;;;;;22.17;18.60;;;9.60;99.90;;;;;;4937433;29;20671;-70
2021/05/19 01:03:16;;;;;;;25.75;22.45;;;9.60;99.90;;;;;;4938196;29;20505;-71
2021/05/19 01:05:45;;;;;;;24.70;20.83;;;9.60;99.90;;;;;;4938211;29;20229;-71
2021/05/19 01:10:55;;;;;;;22.23;19.63;;;9.60;99.90;;;;;;4937265;29;20472;-70
2021/05/19 01:13:21;;;;;;;20.60;18.23;;;9.70;99.90;;;;;;4937917;29;20457;-71
2021/05/19 01:15:47;;;;;;;22.20;18.50;;;9.70;99.90;;;;;;4937049;29;20209;-70
2021/05/19 01:18:13;;;;;;;23.33;18.37;;;9.70;99.90;;;;;;4936557;29;20424;-70
2021/05/19 01:20:40;;;;;;;21.93;18.73;;;9.70;99.90;;;;;;4938740;29;20919;-70
2021/05/19 01:23:07;;;;;;;22.27;18.50;;;9.60;99.90;;;;;;4938299;29;20889;-71
2021/05/19 01:25:37;;;;;;;21.00;18.63;;;9.60;99.90;;;;;;4938467;28;20451;-71
2021/05/19 01:28:04;;;;;;;21.50;18.93;;;9.60;99.90;;;;;;4937914;29;20440;-71
2021/05/19 01:30:32;;;;;;;19.77;17.50;;;9.60;99.90;;;;;;4934527;29;20433;-70
2021/05/19 01:32:57;;;;;;;20.17;17.77;;;9.60;99.90;;;;;;4918806;29;20416;-70
2021/05/19 01:35:23;;;;;;;21.40;19.07;;;9.50;99.90;;;;;;4919200;29;20456;-70
2021/05/19 01:37:49;;;;;;;19.00;17.00;;;9.50;99.90;;;;;;4918851;29;20268;-70
2021/05/19 01:40:18;;;;;;;19.07;16.20;;;9.50;99.90;;;;;;4919001;29;20415;-71
2021/05/19 01:42:48;;;;;;;19.53;16.80;;;9.50;99.90;;;;;;4919707;29;20470;-70
2021/05/19 01:45:16;;;;;;;21.00;16.97;;;9.50;99.90;;;;;;4918966;29;20875;-70
2021/05/19 01:47:47;;;;;;;19.13;16.00;;;9.50;99.90;;;;;;4918851;29;20412;-70
2021/05/19 01:50:21;;;;;;;20.30;18.07;;;9.50;99.90;;;;;;4919086;29;20395;-70
2021/05/19 01:52:49;;;;;;;21.70;18.07;;;9.50;99.90;;;;;;4929592;28;20457;-70
2021/05/19 01:55:16;;;;;;;18.83;16.83;;;9.50;99.90;;;;;;4952096;29;20979;-70
2021/05/19 01:57:46;;;;;;;20.27;16.80;;;9.60;99.90;;;;;;4938419;29;20464;-70
2021/05/19 02:00:13;;;;;;;19.17;15.83;;;9.60;99.90;;;;;;4936482;29;20417;-71
2021/05/19 02:02:40;;;;;;;18.23;15.33;;;9.60;99.90;;;;;;4937709;29;20742;-71
2021/05/19 02:05:06;;;;;;;21.73;17.40;;;9.60;99.90;;;;;;4938953;28;20455;-70
2021/05/19 02:07:36;;;;;;;19.57;17.53;;;9.70;99.90;;;;;;4937172;29;20408;-70
2021/05/19 02:10:06;;;;;;;16.77;14.97;;;9.70;99.90;;;;;;4935716;29;20424;-71
2021/05/19 02:12:32;;;;;;;22.03;17.50;;;9.80;99.90;;;;;;4918162;29;20403;-70
2021/05/19 02:14:58;;;;;;;18.03;16.17;;;9.70;99.90;;;;;;4918541;29;21028;-71
2021/05/19 02:17:27;;;;;;;17.63;15.73;;;9.80;99.90;;;;;;4918383;29;20175;-71
2021/05/19 02:19:53;;;;;;;20.87;16.90;;;9.80;99.90;;;;;;4918406;29;20534;-71
2021/05/19 02:22:19;;;;;;;19.70;17.43;;;9.70;99.90;;;;;;4919149;29;20435;-70
2021/05/19 02:24:44;;;;;;;17.57;15.63;;;9.70;99.90;;;;;;4918036;29;20533;-70
2021/05/19 02:27:10;;;;;;;16.70;14.97;;;9.80;99.90;;;;;;4918269;29;20283;-71
2021/05/19 02:29:35;;;;;;;21.50;17.80;;;9.80;99.90;;;;;;4917377;29;20419;-70
2021/05/19 02:32:01;;;;;;;20.23;16.87;;;9.90;99.90;;;;;;4919146;29;20951;-71
2021/05/19 02:34:26;;;;;;;17.03;14.73;;;9.90;99.90;;;;;;4917918;29;20236;-71
2021/05/19 02:36:55;;;;;;;20.00;16.53;;;9.90;99.90;;;;;;4918107;29;20514;-71
2021/05/19 02:39:21;;;;;;;17.93;16.03;;;9.80;99.90;;;;;;4918765;29;20172;-70
2021/05/19 02:41:46;;;;;;;19.53;16.37;;;9.80;99.90;;;;;;4918703;29;20413;-70
2021/05/19 02:44:12;;;;;;;17.40;15.50;;;9.80;99.90;;;;;;4917757;29;20591;-71
2021/05/19 02:46:38;;;;;;;18.70;15.50;;;9.80;99.90;;;;;;4918082;29;20180;-70
2021/05/19 02:49:05;;;;;;;17.30;15.50;;;9.70;99.90;;;;;;4918882;29;20184;-70
2021/05/19 02:51:32;;;;;;;19.27;16.43;;;9.70;99.90;;;;;;4918979;29;20875;-70
2021/05/19 02:53:58;;;;;;;18.30;16.37;;;9.70;99.90;;;;;;4919862;29;20460;-70
2021/05/19 02:56:24;;;;;;;16.63;14.83;;;9.70;99.90;;;;;;4919136;29;20442;-70
2021/05/19 02:58:50;;;;;;;18.20;16.00;;;9.70;99.90;;;;;;4918573;29;20496;-70
2021/05/19 03:01:16;;;;;;;17.80;15.13;;;9.70;99.90;;;;;;4920119;29;20294;-69
2021/05/19 03:03:41;;;;;;;16.53;14.27;;;9.70;99.90;;;;;;4923726;29;20504;-70
2021/05/19 03:06:07;;;;;;;17.33;15.40;;;9.70;99.90;;;;;;4936293;29;20239;-71
2021/05/19 03:08:33;;;;;;;18.20;16.27;;;9.70;99.90;;;;;;4935968;29;20178;-70
2021/05/19 03:10:58;;;;;;;18.40;15.77;;;9.60;99.90;;;;;;4936723;29;20181;-71
2021/05/19 03:13:24;;;;;;;18.40;16.23;;;9.70;99.90;;;;;;4934663;29;20668;-70
2021/05/19 03:15:49;;;;;;;17.67;15.70;;;9.70;99.90;;;;;;4936111;29;20252;-70
2021/05/19 03:18:15;;;;;;;16.37;14.47;;;9.70;99.90;;;;;;4936389;29;20204;-70
2021/05/19 03:20:41;;;;;;;17.67;15.33;;;9.70;99.90;;;;;;4936192;29;20174;-70
2021/05/19 03:23:06;;;;;;;18.10;16.10;;;9.70;99.90;;;;;;4936215;28;20724;-70
2021/05/19 03:25:32;;;;;;;17.33;15.37;;;9.70;99.90;;;;;;4937448;29;20226;-69
2021/05/19 03:27:57;;;;;;;18.03;15.87;;;9.80;99.90;;;;;;4941450;29;20532;-69
2021/05/19 03:30:23;;;;;;;17.13;15.30;;;9.80;99.90;;;;;;4936352;29;20180;-70
2021/05/19 03:32:48;;;;;;;19.40;15.60;;;9.80;99.90;;;;;;4936197;29;20181;-70
2021/05/19 03:35:14;;;;;;;17.53;15.63;;;9.90;99.90;;;;;;4934629;29;20204;-70
2021/05/19 03:37:40;;;;;;;17.97;15.47;;;9.80;99.90;;;;;;4935969;28;20539;-70
2021/05/19 03:40:08;;;;;;;17.70;15.80;;;9.70;99.90;;;;;;4939221;29;20170;-70
2021/05/19 03:42:34;;;;;;;19.17;16.10;;;9.80;99.90;;;;;;4939695;29;20455;-71
2021/05/19 03:45:00;;;;;;;18.20;16.30;;;9.70;99.90;;;;;;4938638;29;20824;-71
2021/05/19 03:47:25;;;;;;;21.50;18.38;;;9.50;99.90;;;;;;4937503;29;20432;-70
2021/05/19 03:49:51;;;;;;;23.40;19.57;;;9.60;99.90;;;;;;4939878;28;20195;-70
2021/05/19 03:52:17;;;;;;;19.43;17.07;;;9.70;99.90;;;;;;4939683;29;20262;-70
2021/05/19 03:54:43;;;;;;;18.47;16.20;;;9.80;99.90;;;;;;4939250;29;20212;-70
2021/05/19 03:57:09;;;;;;;19.97;15.87;;;9.80;99.90;;;;;;4938258;29;20187;-70
2021/05/19 03:59:35;;;;;;;18.40;15.97;;;9.90;99.90;;;;;;4939670;29;20430;-70
2021/05/19 04:02:00;;;;;;;20.00;17.50;;;9.90;99.90;;;;;;4939847;29;20846;-70
2021/05/19 04:04:26;;;;;;;19.90;17.10;;;9.90;99.90;;;;;;4939046;29;20196;-70
2021/05/19 04:06:52;;;;;;;21.73;18.90;;;10.00;99.90;;;;;;4937493;29;20177;-70
2021/05/19 04:09:17;;;;;;;21.07;18.13;;;10.00;99.90;;;;;;4939274;28;20200;-71
2021/05/19 04:11:44;;;;;;;20.70;18.50;;;9.90;99.90;;;;;;4938919;29;20194;-71
2021/05/19 04:14:10;;;;;;;20.40;18.30;;;9.80;99.90;;;;;;4938259;29;20211;-70
2021/05/19 04:16:36;;;;;;;25.83;18.10;;;9.70;99.90;;;;;;4939326;29;20428;-70
2021/05/19 04:19:03;;;;;;;23.07;18.00;;;9.70;99.90;;;;;;4923724;29;20499;-71
2021/05/19 04:21:29;;;;;;;22.60;18.23;;;9.60;99.90;;;;;;4920199;29;20652;-70
2021/05/19 04:23:55;;;;;;;24.80;20.50;;;9.60;99.90;;;;;;4919707;29;20411;-70
2021/05/19 04:26:20;;;;;;;26.00;21.70;;;9.60;99.90;;;;;;4920208;29;20198;-71
2021/05/19 04:28:46;;;;;;;24.43;20.57;;;9.50;99.90;;;;;;4929066;29;20230;-70
2021/05/19 04:31:13;;;;;;;27.70;21.93;;;9.60;99.90;;;;;;4920362;29;20179;-71
2021/05/19 04:33:38;;;;;;;25.03;21.37;;;9.60;99.90;;;;;;4919685;29;20227;-71
2021/05/19 04:36:05;;;;;;;29.37;22.10;;;9.70;99.90;;;;;;4920173;29;20435;-70
2021/05/19 04:38:31;;;;;;;27.37;21.00;;;9.70;99.90;;;;;;4935334;29;20192;-71
2021/05/19 04:40:56;;;;;;;25.07;21.73;;;9.80;99.90;;;;;;4920579;29;20482;-71
2021/05/19 04:43:23;;;;;;;25.80;21.17;;;9.80;99.90;;;;;;4920818;29;20420;-70
2021/05/19 04:45:49;;;;;;;27.67;21.47;;;9.90;99.90;;;;;;4919841;29;20647;-71
2021/05/19 04:48:14;;;;;;;24.70;21.40;;;9.90;99.90;;;;;;4920682;28;20511;-71
2021/05/19 04:50:40;;;;;;;26.20;20.83;;;10.00;99.90;;;;;;4919747;29;20194;-70
2021/05/19 04:53:07;;;;;;;24.40;20.40;;;10.10;99.90;;;;;;4919303;29;20328;-70
2021/05/19 04:55:32;;;;;;;23.17;19.80;;;10.20;99.90;;;;;;4919078;29;20531;-70
2021/05/19 04:57:59;;;;;;;22.23;19.83;;;10.20;99.90;;;;;;4931441;29;20561;-70
2021/05/19 05:00:25;;;;;;;23.13;19.67;;;10.30;99.90;;;;;;4924450;29;20260;-70
2021/05/19 05:02:50;;;;;;;22.93;19.20;;;10.40;99.90;;;;;;4936873;29;20951;-70
2021/05/19 05:05:16;;;;;;;21.00;18.80;;;10.50;99.90;;;;;;4929456;29;20446;-70
2021/05/19 05:07:42;;;;;;;25.33;20.97;;;10.60;99.90;;;;;;4919664;29;20174;-70
2021/05/19 05:10:10;;;;;;;23.33;20.83;;;10.70;99.90;;;;;;4919796;29;20224;-70
2021/05/19 05:12:36;;;;;;;21.13;18.83;;;10.80;99.90;;;;;;4918955;29;20251;-71
2021/05/19 05:15:06;;;;;;;20.53;18.20;;;10.90;99.90;;;;;;4938253;29;20466;-70
2021/05/19 05:17:32;;;;;;;23.13;20.80;;;11.00;99.90;;;;;;4937692;29;20422;-71
2021/05/19 05:19:58;;;;;;;21.20;19.00;;;11.00;99.90;;;;;;4938388;29;20196;-71
2021/05/19 05:22:23;;;;;;;19.60;17.60;;;11.00;99.90;;;;;;4937567;29;20678;-70
2021/05/19 05:24:49;;;;;;;20.60;17.77;;;11.00;99.90;;;;;;4938154;29;20205;-70
2021/05/19 05:27:14;;;;;;;19.67;17.20;;;11.00;99.90;;;;;;4937808;29;20190;-70
2021/05/19 05:29:40;;;;;;;19.60;16.53;;;11.00;99.90;;;;;;4938142;29;20604;-70
2021/05/19 05:32:07;;;;;;;19.33;17.43;;;11.10;99.90;;;;;;4919053;29;20274;-70
2021/05/19 05:34:33;;;;;;;20.90;17.80;;;11.10;99.90;;;;;;4918520;29;20823;-70
2021/05/19 05:36:59;;;;;;;23.23;17.90;;;11.20;99.90;;;;;;4919126;29;20456;-70
2021/05/19 05:39:25;;;;;;;17.80;16.00;;;11.20;99.90;;;;;;4932469;29;20193;-70
2021/05/19 05:41:51;;;;;;;16.87;15.07;;;11.30;99.90;;;;;;4938144;29;20177;-70
2021/05/19 05:44:17;;;;;;;18.30;16.40;;;11.30;99.90;;;;;;4937544;29;20468;-70
2021/05/19 05:46:42;;;;;;;19.43;16.70;;;11.30;99.90;;;;;;4937287;29;20604;-70
2021/05/19 05:49:08;;;;;;;21.27;15.80;;;11.40;99.90;;;;;;4934558;28;20214;-69
2021/05/19 05:51:34;;;;;;;19.03;17.03;;;11.50;99.90;;;;;;4926442;29;20178;-69
2021/05/19 05:54:00;;;;;;;17.37;15.67;;;11.50;99.90;;;;;;4918472;29;20194;-70
2021/05/19 05:56:25;;;;;;;15.57;13.90;;;11.50;99.90;;;;;;4931880;29;20438;-70
2021/05/19 05:58:51;;;;;;;17.07;15.27;;;11.60;99.90;;;;;;4937175;29;20170;-70
2021/05/19 06:01:16;;;;;;;17.80;16.00;;;11.60;99.90;;;;;;4936700;29;20182;-70
2021/05/19 06:03:42;;;;;;;18.40;16.00;;;11.60;99.90;;;;;;4937110;29;20186;-70
2021/05/19 06:06:08;;;;;;;19.20;16.50;;;11.60;99.90;;;;;;4919223;29;20222;-71
2021/05/19 06:08:33;;;;;;;18.10;14.47;;;11.70;99.90;;;;;;4918818;29;20175;-70
2021/05/19 06:10:59;;;;;;;16.83;15.03;;;11.70;99.90;;;;;;4920954;29;20179;-71
2021/05/19 06:13:24;;;;;;;16.77;15.07;;;11.80;99.90;;;;;;4931173;29;20305;-71
2021/05/19 06:15:50;;;;;;;18.20;14.50;;;11.70;99.90;;;;;;4931504;29;20222;-71
2021/05/19 06:18:16;;;;;;;16.67;14.90;;;11.80;99.90;;;;;;4922330;29;20174;-71
2021/05/19 06:20:41;;;;;;;15.97;14.37;;;11.90;99.90;;;;;;4919979;29;20230;-71
2021/05/19 06:23:07;;;;;;;16.37;13.70;;;12.00;99.90;;;;;;4917956;29;20178;-70
2021/05/19 06:25:32;;;;;;;18.33;13.70;;;12.00;99.90;;;;;;4917908;29;20191;-71
2021/05/19 06:27:58;;;;;;;15.07;12.70;;;12.10;99.90;;;;;;4918803;29;20179;-71
2021/05/19 06:30:24;;;;;;;14.50;12.53;;;12.10;99.90;;;;;;4930431;29;20174;-70
2021/05/19 06:32:50;;;;;;;14.30;12.83;;;12.20;99.90;;;;;;4937460;29;20578;-70
2021/05/19 06:35:15;;;;;;;15.83;12.90;;;12.10;99.90;;;;;;4937689;29;20702;-70
2021/05/19 06:37:41;;;;;;;16.40;13.37;;;12.10;99.90;;;;;;4937363;29;20245;-72
2021/05/19 06:40:08;;;;;;;15.47;13.87;;;12.00;99.90;;;;;;4937527;29;20174;-71
2021/05/19 06:42:34;;;;;;;15.13;13.00;;;12.10;99.90;;;;;;4937483;29;20182;-70
2021/05/19 06:45:00;;;;;;;15.20;13.03;;;12.10;99.90;;;;;;4937492;29;20991;-70
2021/05/19 06:47:25;;;;;;;15.80;12.40;;;12.10;99.90;;;;;;4936833;28;20182;-70
2021/05/19 06:49:52;;;;;;;14.37;11.10;;;12.00;99.90;;;;;;4936918;29;20245;-71
2021/05/19 06:52:18;;;;;;;18.53;11.50;;;12.00;99.90;;;;;;4937173;29;20651;-71
2021/05/19 06:54:44;;;;;;;14.00;11.67;;;12.00;99.90;;;;;;4936610;29;20560;-71
2021/05/19 06:57:09;;;;;;;14.10;11.60;;;12.00;99.90;;;;;;4937639;29;20421;-71
2021/05/19 06:59:35;;;;;;;11.67;9.73;;;12.00;99.90;;;;;;4940172;28;20563;-72
2021/05/19 07:02:00;;;;;;;13.57;10.97;;;12.20;99.90;;;;;;4946003;29;20418;-71
2021/05/19 07:04:26;;;;;;;12.63;10.80;;;12.20;99.90;;;;;;4960871;29;20301;-72
2021/05/19 07:06:52;;;;;;;13.30;10.70;;;12.10;99.90;;;;;;4919102;29;20189;-71
2021/05/19 07:09:19;;;;;;;16.90;10.87;;;12.10;99.90;;;;;;4917815;29;20685;-71
2021/05/19 07:11:44;;;;;;;12.20;9.90;;;12.20;99.90;;;;;;4916440;29;20182;-71
2021/05/19 07:14:17;;;;;;;10.73;9.63;;;12.30;99.90;;;;;;4916246;29;20486;-72
2021/05/19 07:16:53;;;;;;;13.30;10.43;;;12.20;99.90;;;;;;4917491;29;20194;-69
2021/05/19 07:19:23;;;;;;;16.33;11.13;;;12.20;99.90;;;;;;4917745;29;20765;-70
2021/05/19 07:21:50;;;;;;;17.93;11.37;;;12.40;99.90;;;;;;4917205;29;20449;-70
2021/05/19 07:24:16;;;;;;;13.33;10.43;;;12.60;99.90;;;;;;4916827;29;20423;-71
2021/05/19 07:26:44;;;;;;;12.13;8.70;;;12.70;99.90;;;;;;4917008;29;20921;-71
2021/05/19 07:29:11;;;;;;;11.27;8.23;;;12.90;99.90;;;;;;4918700;29;20533;-71
2021/05/19 07:31:36;;;;;;;9.87;8.53;;;13.00;99.90;;;;;;4936323;29;20410;-71
2021/05/19 07:34:03;;;;;;;10.10;8.67;;;13.10;99.90;;;;;;4935826;29;20469;-71
2021/05/19 07:36:29;;;;;;;10.23;8.40;;;13.10;99.90;;;;;;4936669;29;20426;-71
2021/05/19 07:38:55;;;;;;;10.70;8.40;;;13.20;99.90;;;;;;4936842;29;20417;-70
2021/05/19 07:41:23;;;;;;;9.87;8.40;;;13.20;99.90;;;;;;4949947;29;20426;-71
2021/05/19 07:43:48;;;;;;;10.27;8.57;;;13.20;99.90;;;;;;4936132;29;20205;-71
2021/05/19 07:46:14;;;;;;;10.57;8.07;;;12.90;99.90;;;;;;4936353;29;20835;-71
2021/05/19 07:48:39;;;;;;;8.93;7.63;;;13.00;99.90;;;;;;4935752;28;20264;-71
2021/05/19 07:51:05;;;;;;;11.90;9.00;;;13.00;99.90;;;;;;4951344;29;20186;-70
2021/05/19 07:53:31;;;;;;;12.03;9.27;;;13.00;99.90;;;;;;4935517;29;20614;-71
2021/05/19 07:56:05;;;;;;;11.30;10.20;;;13.20;99.90;;;;;;4936199;29;20206;-71
2021/05/19 07:58:37;;;;;;;11.93;10.30;;;13.10;99.90;;;;;;4936006;29;20158;-71
2021/05/19 08:01:11;;;;;;;10.07;9.07;;;13.20;99.90;;;;;;4936438;29;20783;-71
2021/05/19 08:03:36;;;;;;;12.53;9.00;;;13.20;99.90;;;;;;4936095;29;20402;-70
2021/05/19 08:06:02;;;;;;;9.97;9.07;;;13.30;99.90;;;;;;4918432;29;20568;-71
2021/05/19 08:08:28;;;;;;;10.43;7.77;;;13.30;99.90;;;;;;4916876;29;20641;-70
2021/05/19 08:10:55;;;;;;;10.90;7.30;;;13.40;99.90;;;;;;4917269;29;20497;-71
2021/05/19 08:13:21;;;;;;;9.23;6.80;;;13.50;99.90;;;;;;4916627;29;20250;-71
2021/05/19 08:15:46;;;;;;;7.17;6.33;;;13.60;99.90;;;;;;4916471;29;20510;-71
2021/05/19 08:18:12;;;;;;;6.40;5.37;;;13.70;99.90;;;;;;4917166;29;20186;-71
2021/05/19 08:20:39;;;;;;;8.10;5.77;;;13.80;99.90;;;;;;4916821;29;20230;-71
2021/05/19 08:23:06;;;;;;;6.93;5.03;;;14.00;99.90;;;;;;4917011;29;20258;-71
2021/05/19 08:25:31;;;;;;;6.33;5.37;;;14.10;99.90;;;;;;4918583;29;20438;-71
2021/05/19 08:27:57;;;;;;;7.40;5.20;;;14.20;99.90;;;;;;4920612;29;20873;-71
2021/05/19 08:30:24;;;;;;;6.13;4.53;;;14.30;99.90;;;;;;4932043;29;20270;-71
2021/05/19 08:32:51;;;;;;;5.83;4.50;;;14.40;99.90;;;;;;4939493;29;20433;-70
2021/05/19 08:35:17;;;;;;;8.13;4.60;;;14.40;99.90;;;;;;4939436;29;20477;-71
2021/05/19 08:37:42;;;;;;;11.90;5.53;;;14.40;99.80;;;;;;4954895;29;20418;-71
2021/05/19 08:40:08;;;;;;;5.70;4.97;;;14.50;99.30;;;;;;4939977;28;20203;-71
2021/05/19 08:42:35;;;;;;;6.57;5.10;;;14.60;99.30;;;;;;4940552;29;20535;-71
2021/05/19 08:45:02;;;;;;;6.43;5.43;;;14.70;99.70;;;;;;4953414;29;20943;-71
2021/05/19 08:47:27;;;;;;;5.23;4.73;;;14.70;99.40;;;;;;4938376;29;20430;-71
2021/05/19 08:49:53;;;;;;;8.57;5.20;;;14.90;99.30;;;;;;4938462;28;20571;-72
2021/05/19 08:52:19;;;;;;;5.93;5.13;;;14.90;99.40;;;;;;4938803;29;20504;-71
2021/05/19 08:54:45;;;;;;;7.37;5.20;;;14.80;99.00;;;;;;4938365;29;20206;-71
2021/05/19 08:57:12;;;;;;;7.70;5.10;;;14.90;98.90;;;;;;4938711;29;20469;-70
2021/05/19 08:59:38;;;;;;;6.57;5.33;;;14.80;99.20;;;;;;4937977;29;20245;-71
2021/05/19 09:02:12;;;;;;;6.63;6.03;;;14.90;99.40;;;;;;4938603;29;20410;-71
2021/05/19 09:04:38;;;;;;;8.97;5.70;;;14.80;99.60;;;;;;4931513;28;20518;-70
2021/05/19 09:07:05;;;;;;;7.20;6.07;;;14.70;99.90;;;;;;4919306;29;20410;-71
2021/05/19 09:09:36;;;;;;;4.90;4.50;;;14.90;99.80;;;;;;4919482;29;20407;-71
2021/05/19 09:12:09;;;;;;;6.33;5.33;;;14.70;99.70;;;;;;4920336;29;20391;-71
2021/05/19 09:14:41;;;;;;;6.07;5.50;;;14.70;99.90;;;;;;4920221;29;20490;-70
2021/05/19 09:17:26;;;;;;;8.00;6.10;;;14.60;99.90;;;;;;4919934;29;20552;-70
2021/05/19 09:20:28;;;;;;;5.27;4.70;;;14.60;99.90;;;;;;4921374;29;20475;-69
2021/05/19 09:23:04;;;;;;;7.80;5.77;;;14.40;99.90;;;;;;4842353;29;20812;-70
2021/05/19 09:25:31;;;;;;;5.03;4.53;;;14.30;99.90;;;;;;4842224;29;20466;-70
2021/05/19 09:28:00;;;;;;;5.70;5.00;;;14.30;99.90;;;;;;4842690;29;20422;-70
2021/05/19 09:30:43;;;;;;;6.20;5.30;;;14.40;99.90;;;;;;4854149;29;20425;-69
2021/05/19 09:33:24;;;;;;;5.90;4.20;;;14.10;99.90;;;;;;4860337;29;20425;-70
2021/05/19 09:36:21;;;;;;;5.87;5.03;;;13.80;99.90;;;;;;4860534;29;20528;-71
2021/05/19 09:38:49;;;;;;;8.80;4.20;;;13.70;99.90;;;;;;4788064;30;20437;-70
2021/05/19 09:41:25;;;;;;;8.00;4.33;;;13.50;99.90;;;;;;4787612;30;20509;-71
2021/05/19 09:43:55;;;;;;;4.53;4.00;;;13.40;99.90;;;;;;4787720;30;20973;-70
2021/05/19 09:46:24;;;;;;;9.93;3.63;;;13.40;99.90;;;;;;4787691;30;20446;-69
2021/05/19 09:49:13;;;;;;;6.73;4.53;;;13.40;99.90;;;;;;4792143;30;20434;-69
2021/05/19 09:51:39;;;;;;;7.57;4.00;;;13.50;99.90;;;;;;4787767;29;20475;-70
2021/05/19 09:54:05;;;;;;;6.03;3.57;;;13.50;99.90;;;;;;4787357;30;20469;-70
2021/05/19 09:56:31;;;;;;;4.07;3.67;;;13.60;99.90;;;;;;4814543;29;20580;-70
2021/05/19 09:58:56;;;;;;;6.73;3.50;;;13.40;99.90;;;;;;4860364;29;20176;-70
2021/05/19 10:01:24;;;;;;;5.83;3.07;;;13.20;99.90;;;;;;4860087;29;20185;-70
2021/05/19 10:03:52;;;;;;;5.77;3.20;;;13.10;99.90;;;;;;4861022;29;20213;-70
2021/05/19 10:06:24;;;;;;;7.13;3.40;;;13.20;99.90;;;;;;4878635;29;20440;-70
2021/05/19 10:08:50;;;;;;;5.90;3.73;;;13.50;99.90;;;;;;4879052;29;20488;-70
2021/05/19 10:11:16;;;;;;;5.40;3.80;;;13.80;99.90;;;;;;4882291;29;20421;-70
2021/05/19 10:13:43;;;;;;;6.20;3.60;;;13.80;99.90;;;;;;4893731;29;20492;-69
2021/05/19 10:16:14;;;;;;;5.93;3.37;;;13.80;99.90;;;;;;4948656;29;20615;-71
2021/05/19 10:18:53;;;;;;;6.57;3.70;;;13.90;99.90;;;;;;4956177;29;20971;-71
2021/05/19 10:21:20;;;;;;;5.03;2.70;;;13.90;99.90;;;;;;4956551;29;20406;-70
2021/05/19 10:24:07;;;;;;;3.00;2.60;;;14.00;99.90;;;;;;4938439;29;20450;-71
2021/05/19 10:27:08;;;;;;;3.70;2.00;;;14.20;99.90;;;;;;4937467;29;20878;-70
2021/05/19 10:29:45;;;;;;;2.50;1.70;;;14.20;99.90;;;;;;4931876;29;20411;-71
2021/05/19 10:32:20;;;;;;;4.00;1.97;;;14.40;99.90;;;;;;4934608;29;20517;-71
2021/05/19 10:34:46;;;;;;;5.40;1.90;;;14.60;99.90;;;;;;4935990;29;20983;-70
2021/05/19 10:37:27;;;;;;;8.93;2.53;;;14.80;99.30;;;;;;4936679;29;20517;-70
2021/05/19 10:40:07;;;;;;;3.23;1.77;;;15.00;99.20;;;;;;4936474;29;20418;-71
2021/05/19 10:42:35;;;;;;;2.70;1.80;;;15.20;98.60;;;;;;4935930;29;20454;-70
2021/05/19 10:45:07;;;;;;;3.27;1.70;;;15.10;97.90;;;;;;4936394;29;20445;-70
2021/05/19 10:47:33;;;;;;;3.13;2.00;;;15.10;98.30;;;;;;4936352;29;20414;-70
2021/05/19 11:01:10;;;;;;;2.93;1.60;;;15.00;98.30;;;;;;4936256;29;20426;-70
2021/05/19 11:03:39;;;;;;;3.33;2.17;;;15.00;98.30;;;;;;4935948;29;20422;-71
2021/05/19 11:06:08;;;;;;;3.63;2.13;;;15.10;98.10;;;;;;4936703;29;20446;-70
2021/05/19 11:08:36;;;;;;;4.10;2.27;;;15.00;98.10;;;;;;4936151;29;20426;-70
2021/05/19 11:11:23;;;;;;;4.47;2.23;;;15.00;98.00;;;;;;4936566;29;20779;-70
2021/05/19 11:14:36;;;;;;;8.27;2.37;;;15.00;98.50;;;;;;4936204;29;20468;-69
2021/05/19 11:17:20;;;;;;;4.30;3.00;;;15.10;98.60;;;;;;4928817;29;20448;-69
2021/05/19 11:19:46;;;;;;;5.07;2.63;;;15.10;98.70;;;;;;4936748;29;20398;-68
2021/05/19 11:22:15;;;;;;;5.63;2.97;;;15.10;98.70;;;;;;4937308;29;20461;-68
2021/05/19 11:25:00;;;;;;;9.40;3.10;;;15.30;99.70;;;;;;4935865;29;20229;-68
2021/05/19 11:27:28;;;;;;;5.30;2.30;;;15.50;98.50;;;;;;4936939;29;20744;-69
2021/05/19 11:29:55;;;;;;;3.67;2.07;;;15.60;97.50;;;;;;4928268;29;20419;-69
2021/05/19 11:32:23;;;;;;;4.40;2.00;;;15.70;97.10;;;;;;4917152;29;20477;-69
2021/05/19 11:34:50;;;;;;;3.67;2.40;;;15.80;97.30;;;;;;4917427;29;20467;-69
2021/05/19 11:37:17;;;;;;;11.57;3.10;;;15.90;97.10;;;;;;4917506;29;20435;-69
2021/05/19 11:39:52;;;;;;;5.27;2.17;;;16.00;97.40;;;;;;4917413;29;20470;-72
2021/05/19 11:42:29;;;;;;;6.20;3.00;;;16.00;95.70;;;;;;4917361;29;20533;-72
2021/05/19 11:45:12;;;;;;;10.67;3.27;;;16.00;96.30;;;;;;4916865;29;20443;-71
2021/05/19 11:47:39;;;;;;;9.27;3.30;;;16.00;97.10;;;;;;4917512;29;20429;-71
2021/05/19 11:50:22;;;;;;;7.18;3.28;;;15.90;97.70;;;;;;4917641;29;20428;-71
2021/05/19 11:53:10;;;;;;;4.37;2.80;;;15.80;99.90;;;;;;4925150;28;20206;-71
2021/05/19 11:55:41;;;;;;;8.57;3.40;;;15.80;99.90;;;;;;4936376;29;20867;-72
2021/05/19 11:58:11;;;;;;;9.03;3.20;;;15.60;99.90;;;;;;4923377;29;20414;-71
2021/05/19 12:00:49;;;;;;;8.10;2.60;;;15.80;99.90;;;;;;4936200;29;20410;-73
2021/05/19 12:03:17;;;;;;;4.90;2.30;;;15.90;99.90;;;;;;4938631;29;20411;-72
2021/05/19 12:05:54;;;;;;;11.17;3.17;;;15.70;98.90;;;;;;4937237;29;20465;-71
2021/05/19 12:08:30;;;;;;;5.27;2.60;;;15.40;99.30;;;;;;4932003;29;20433;-72
2021/05/19 12:11:05;;;;;;;4.40;2.43;;;15.40;99.90;;;;;;4923015;29;20441;-72
2021/05/19 12:13:32;;;;;;;6.53;3.23;;;15.20;99.90;;;;;;4911200;29;20465;-70
2021/05/19 12:15:58;;;;;;;6.80;3.40;;;14.90;99.90;;;;;;4918178;28;20969;-70
2021/05/19 12:18:24;;;;;;;6.80;2.90;;;14.70;99.90;;;;;;4931580;29;20465;-70
2021/05/19 12:20:50;;;;;;;3.30;3.00;;;14.30;99.90;;;;;;4933394;29;20435;-71
2021/05/19 12:23:16;;;;;;;4.30;3.67;;;13.90;99.90;;;;;;4928150;29;20186;-70
2021/05/19 12:25:44;;;;;;;6.33;3.10;;;13.80;99.90;;;;;;4932794;29;20442;-70
2021/05/19 12:28:18;;;;;;;3.83;3.00;;;13.80;99.90;;;;;;4931632;29;20437;-71
2021/05/19 12:30:49;;;;;;;9.70;3.80;;;13.90;99.90;;;;;;4923595;29;20928;-71
2021/05/19 12:33:17;;;;;;;5.13;3.63;;;14.10;99.90;;;;;;4932230;28;20811;-70
2021/05/19 12:35:46;;;;;;;8.37;3.80;;;14.10;99.90;;;;;;4932892;29;20450;-70
2021/05/19 12:38:12;;;;;;;7.10;4.33;;;14.10;99.90;;;;;;4933456;29;20425;-71
2021/05/19 12:40:39;;;;;;;6.83;2.90;;;14.30;99.90;;;;;;4934263;29;20492;-70
2021/05/19 12:43:10;;;;;;;3.97;3.23;;;14.30;99.90;;;;;;4931870;28;20473;-70
2021/05/19 12:45:38;;;;;;;6.50;3.00;;;14.50;99.90;;;;;;4935114;29;20442;-71
2021/05/19 12:48:09;;;;;;;5.23;3.20;;;14.70;99.90;;;;;;4932421;29;20469;-71
2021/05/19 12:50:55;;;;;;;2.73;2.10;;;14.80;99.90;;;;;;4933219;29;20426;-70
2021/05/19 12:53:41;;;;;;;7.97;3.80;;;15.00;99.90;;;;;;4931541;29;20434;-69
2021/05/19 12:56:26;;;;;;;6.40;3.30;;;15.20;99.90;;;;;;4926534;29;20496;-71